Ana Sayfa
METAR-TAF:

METAR-TAF

Havaalanları :

Harrisburg, Pensilvanya, Amerika Birleşik Devletleri

Enlem: 40-13-02N, Boylam: 076-51-05W, yükseklik: 106 m

Güncel hava durumu gözlemi

Rapor saat 04:56 UTC de 37 dakika önce yapıldı.
Rüzgar güneybatıdan 10 kt
Sıcaklık 3°C
Nem 56%
Basınç 1011 hPa
Görüş mesafesi: 16.1 km
5000 ft yükseklikte parçalı çok bulutlu

METAR: KCXY 020456Z AUTO 23010KT 10SM BKN050 03/M05 A2984 RMK AO2 SLP108 T00281050 400890022

Saat: 00:33 (05:33 UTC)


TAF: eksik

4.000'den fazla havaalanı için hava durumu gözlemleri ve tahminleri (METAR ve TAF raporları).

Kullanılabilir istasyonlar harita üzerinde sarı ve kırmızı noktalarla gösterilir.

İstasyonun adını görmek için fareyi noktanın üzerinde gezdirin.

Sonrasında hava gözlem ve tahminlerini görmek için tıklayın.

Haritayı değiştirmek için: yaklaştırmak için siyah artı işaretli yeşil düğmeye ve uzaklaştırmak için de eksi işaretli düğmeye hızla tıklayın; bitişik haritalar için yeşil okları kullanın.


METAR-TAF: